createdAt,value
2022-12-31T00:02:23.463Z,73.85
2022-12-31T00:04:50.531Z,73.87
2022-12-31T00:07:17.553Z,73.49
2022-12-31T00:09:44.476Z,73.91
2022-12-31T00:12:11.587Z,73.80
2022-12-31T00:14:38.766Z,74.37
2022-12-31T00:17:05.767Z,73.43
2022-12-31T00:19:32.845Z,73.67
2022-12-31T00:21:59.746Z,74.33
2022-12-31T00:24:31.126Z,74.00
2022-12-31T00:26:58.187Z,74.26
2022-12-31T00:29:25.140Z,73.56
2022-12-31T00:31:52.180Z,74.04
2022-12-31T00:34:19.144Z,73.45
2022-12-31T00:36:46.279Z,73.91
2022-12-31T00:39:13.206Z,73.50
2022-12-31T00:41:40.669Z,74.21
2022-12-31T00:44:07.682Z,74.03
2022-12-31T00:49:02.229Z,74.17
2022-12-31T00:51:29.723Z,73.59
2022-12-31T00:53:57.386Z,73.73
2022-12-31T00:56:27.178Z,74.04
2022-12-31T00:58:54.497Z,74.08
2022-12-31T01:01:23.919Z,74.04
2022-12-31T01:03:53.477Z,73.39
2022-12-31T01:06:20.858Z,74.13
2022-12-31T01:08:49.287Z,74.11
2022-12-31T01:11:19.581Z,73.85
2022-12-31T01:13:51.941Z,73.66
2022-12-31T01:16:21.609Z,73.33
2022-12-31T01:18:49.340Z,73.78
2022-12-31T01:21:17.214Z,73.96
2022-12-31T01:23:44.268Z,73.78
2022-12-31T01:26:13.748Z,73.97
2022-12-31T01:28:40.853Z,73.25
2022-12-31T01:31:10.335Z,73.58
2022-12-31T01:33:37.549Z,73.71
2022-12-31T01:36:06.531Z,73.72
2022-12-31T01:38:34.665Z,73.68
2022-12-31T01:41:02.220Z,73.62
2022-12-31T01:43:47.821Z,73.74
2022-12-31T01:46:22.001Z,73.35
2022-12-31T01:48:52.027Z,73.81
2022-12-31T01:51:19.453Z,73.73
2022-12-31T01:53:46.831Z,73.19
2022-12-31T01:56:14.220Z,73.83
2022-12-31T01:58:44.726Z,73.77
2022-12-31T02:01:20.108Z,73.27
2022-12-31T02:03:47.261Z,73.13
2022-12-31T02:06:19.039Z,73.42
2022-12-31T02:08:45.830Z,73.19
2022-12-31T02:11:34.549Z,73.55
2022-12-31T02:14:08.745Z,73.18
2022-12-31T02:16:43.611Z,73.61
2022-12-31T02:19:48.258Z,73.41
2022-12-31T02:22:52.567Z,73.59
2022-12-31T02:25:23.939Z,73.36
2022-12-31T02:28:09.427Z,73.53
2022-12-31T02:30:36.960Z,73.50
2022-12-31T02:33:27.051Z,73.52
2022-12-31T02:36:04.045Z,73.60
2022-12-31T02:38:37.395Z,74.04
2022-12-31T02:41:04.709Z,73.67
2022-12-31T02:43:31.779Z,74.10
2022-12-31T02:46:20.663Z,73.93
2022-12-31T02:49:06.627Z,73.84
2022-12-31T02:51:54.788Z,73.92
2022-12-31T02:54:39.259Z,73.61
2022-12-31T02:57:18.249Z,73.98
2022-12-31T03:00:12.040Z,74.11
2022-12-31T03:02:41.312Z,73.98
2022-12-31T03:05:09.448Z,73.95
2022-12-31T03:07:36.374Z,74.63
2022-12-31T03:10:03.525Z,74.78
2022-12-31T03:12:51.579Z,74.32
2022-12-31T03:15:34.681Z,74.37
2022-12-31T03:18:06.773Z,74.27
2022-12-31T03:21:10.657Z,74.51
2022-12-31T03:23:41.003Z,75.04
2022-12-31T03:26:11.135Z,74.62
2022-12-31T03:28:48.036Z,75.11
2022-12-31T03:31:16.527Z,75.17
2022-12-31T03:33:43.541Z,74.97
2022-12-31T03:36:14.970Z,75.13
2022-12-31T03:38:42.338Z,75.01
2022-12-31T03:41:10.776Z,75.47
2022-12-31T03:43:37.986Z,75.22
2022-12-31T03:46:05.052Z,75.52
2022-12-31T03:48:32.083Z,75.71
2022-12-31T03:50:58.935Z,75.74
2022-12-31T03:53:26.424Z,76.06
2022-12-31T03:55:54.012Z,75.84
2022-12-31T03:58:21.727Z,76.29
2022-12-31T04:00:48.963Z,76.42
2022-12-31T04:03:16.140Z,76.26
2022-12-31T04:05:43.127Z,76.33
2022-12-31T04:08:10.103Z,76.89
2022-12-31T04:10:37.157Z,76.42
2022-12-31T04:13:04.999Z,77.07
2022-12-31T04:15:32.193Z,76.72
2022-12-31T04:17:59.187Z,77.29
2022-12-31T04:20:26.805Z,76.91
2022-12-31T04:22:53.900Z,77.27
2022-12-31T04:25:20.838Z,76.92
2022-12-31T04:27:47.887Z,77.72
2022-12-31T04:30:14.928Z,77.73
2022-12-31T04:32:42.215Z,77.49
2022-12-31T04:35:10.178Z,77.65
2022-12-31T04:37:37.195Z,77.99
2022-12-31T04:40:06.669Z,78.26
2022-12-31T04:42:34.659Z,78.03
2022-12-31T04:45:01.683Z,78.00
2022-12-31T04:47:28.839Z,78.30
2022-12-31T04:49:55.868Z,78.35
2022-12-31T04:52:23.089Z,78.63
2022-12-31T04:54:50.060Z,78.38
2022-12-31T04:57:17.033Z,78.81
2022-12-31T04:59:44.018Z,78.63
2022-12-31T05:02:11.318Z,79.00
2022-12-31T05:04:38.527Z,78.67
2022-12-31T05:07:05.592Z,79.19
2022-12-31T05:09:32.494Z,78.95
2022-12-31T05:11:59.490Z,78.92
2022-12-31T05:14:26.504Z,78.84
2022-12-31T05:16:53.874Z,79.37
2022-12-31T05:19:20.842Z,79.18
2022-12-31T05:22:07.663Z,79.47
2022-12-31T05:24:34.774Z,79.04
2022-12-31T05:27:02.024Z,79.42
2022-12-31T05:29:29.008Z,79.55
2022-12-31T05:31:55.856Z,79.82
2022-12-31T05:34:22.929Z,79.54
2022-12-31T05:36:49.888Z,79.90
2022-12-31T05:39:16.939Z,79.64
2022-12-31T05:41:43.799Z,79.43
2022-12-31T05:44:11.208Z,79.79
2022-12-31T05:46:38.123Z,79.82
2022-12-31T05:49:05.114Z,80.08
2022-12-31T05:51:32.170Z,80.00
2022-12-31T05:53:59.280Z,79.77
2022-12-31T05:56:26.341Z,80.25
2022-12-31T05:58:53.200Z,80.11
2022-12-31T06:01:20.504Z,80.31
2022-12-31T06:03:47.744Z,80.19
2022-12-31T06:06:14.779Z,80.38
2022-12-31T06:08:41.661Z,80.58
2022-12-31T06:11:08.560Z,80.17
2022-12-31T06:13:35.569Z,80.50
2022-12-31T06:16:07.811Z,80.38
2022-12-31T06:18:35.017Z,80.11
2022-12-31T06:21:04.189Z,80.44
2022-12-31T06:23:31.546Z,80.49
2022-12-31T06:26:02.889Z,80.43
2022-12-31T06:28:29.857Z,80.65
2022-12-31T06:31:04.323Z,80.88
2022-12-31T06:33:31.516Z,80.60
2022-12-31T06:36:00.298Z,80.95
2022-12-31T06:38:28.811Z,81.00
2022-12-31T06:40:56.007Z,80.85
2022-12-31T06:43:23.286Z,80.88
2022-12-31T06:45:50.151Z,80.93
2022-12-31T06:48:17.128Z,81.11
2022-12-31T06:50:44.031Z,80.87
2022-12-31T06:53:11.883Z,80.94
2022-12-31T06:55:39.133Z,80.96
2022-12-31T06:58:06.402Z,81.18
2022-12-31T07:00:33.882Z,81.03
2022-12-31T07:03:11.071Z,81.04
2022-12-31T07:06:16.847Z,81.24
2022-12-31T07:08:49.683Z,81.20
2022-12-31T07:11:25.748Z,81.15
2022-12-31T07:13:59.331Z,81.30
2022-12-31T07:16:32.470Z,81.14
2022-12-31T07:19:19.761Z,81.23
2022-12-31T07:21:48.983Z,81.10
2022-12-31T07:24:16.447Z,81.45
2022-12-31T07:26:57.346Z,81.73
2022-12-31T07:29:42.856Z,81.37
2022-12-31T07:32:09.876Z,81.09
2022-12-31T07:34:48.516Z,81.44
2022-12-31T07:37:44.502Z,81.33
2022-12-31T07:40:18.989Z,81.52
2022-12-31T07:43:07.782Z,81.18
2022-12-31T07:45:38.248Z,81.19
2022-12-31T07:48:19.348Z,81.59
2022-12-31T07:50:46.461Z,81.47
2022-12-31T07:53:13.802Z,81.72
2022-12-31T07:55:40.732Z,81.43
2022-12-31T07:58:24.462Z,81.43
2022-12-31T08:00:53.090Z,81.53
2022-12-31T08:03:56.857Z,81.37
2022-12-31T08:06:54.809Z,81.17
2022-12-31T08:09:33.804Z,81.55
2022-12-31T08:12:02.091Z,81.51
2022-12-31T08:14:29.919Z,81.29
2022-12-31T08:16:57.792Z,81.34
2022-12-31T08:19:34.323Z,81.53
2022-12-31T08:22:17.992Z,81.33
2022-12-31T08:24:54.235Z,81.42
2022-12-31T08:27:30.877Z,81.40
2022-12-31T08:30:18.372Z,81.59
2022-12-31T08:33:00.524Z,81.40
2022-12-31T08:35:43.810Z,81.14
2022-12-31T08:38:32.340Z,81.24
2022-12-31T08:41:17.207Z,81.34
2022-12-31T08:44:07.527Z,81.33
2022-12-31T08:47:02.782Z,81.29
2022-12-31T08:49:32.947Z,81.30
2022-12-31T08:52:01.000Z,81.46
2022-12-31T08:54:29.427Z,81.55
2022-12-31T08:57:19.296Z,81.55
2022-12-31T08:59:55.371Z,81.34
2022-12-31T09:02:25.490Z,81.42
2022-12-31T09:05:26.052Z,81.01
2022-12-31T09:08:14.755Z,81.30
2022-12-31T09:10:49.204Z,80.77
2022-12-31T09:13:25.780Z,81.18
2022-12-31T09:16:08.255Z,81.08
2022-12-31T09:18:39.744Z,81.27
2022-12-31T09:21:10.122Z,81.17
2022-12-31T09:23:37.426Z,81.05
2022-12-31T09:26:29.429Z,81.44
2022-12-31T09:29:17.701Z,80.99
2022-12-31T09:31:47.506Z,81.48
2022-12-31T09:34:25.873Z,81.14
2022-12-31T09:37:00.186Z,81.47
2022-12-31T09:39:40.500Z,81.09
2022-12-31T09:42:35.501Z,81.06
2022-12-31T09:45:24.303Z,81.52
2022-12-31T09:48:29.003Z,81.56
2022-12-31T09:51:33.446Z,80.88
2022-12-31T09:54:21.767Z,80.89
2022-12-31T09:57:10.602Z,81.56
2022-12-31T09:59:54.805Z,81.58
2022-12-31T10:02:43.446Z,81.29
2022-12-31T10:05:47.872Z,81.33
2022-12-31T10:08:39.364Z,81.40
2022-12-31T10:11:15.033Z,81.67
2022-12-31T10:14:26.807Z,81.14
2022-12-31T10:17:09.479Z,81.69
2022-12-31T10:20:14.643Z,81.56
2022-12-31T10:22:53.831Z,81.53
2022-12-31T10:25:39.915Z,81.83
2022-12-31T10:28:15.959Z,81.54
2022-12-31T10:30:56.374Z,81.93
2022-12-31T10:33:46.054Z,81.72
2022-12-31T10:36:23.872Z,81.94
2022-12-31T10:39:12.839Z,81.77
2022-12-31T10:42:10.265Z,82.14
2022-12-31T10:44:43.252Z,81.59
2022-12-31T10:47:45.823Z,81.77
2022-12-31T10:50:21.914Z,81.86
2022-12-31T10:53:27.938Z,82.01
2022-12-31T10:55:57.778Z,82.19
2022-12-31T10:58:30.559Z,81.89
2022-12-31T11:01:35.331Z,81.99
2022-12-31T11:04:33.537Z,82.02
2022-12-31T11:07:38.287Z,82.35
2022-12-31T11:10:40.472Z,82.02
2022-12-31T11:13:29.146Z,82.14
2022-12-31T11:16:14.694Z,82.46
2022-12-31T11:19:17.013Z,82.07
2022-12-31T11:22:08.816Z,82.31
2022-12-31T11:24:57.339Z,82.61
2022-12-31T11:27:49.320Z,82.62
2022-12-31T11:30:27.846Z,82.36
2022-12-31T11:33:07.941Z,82.18
2022-12-31T11:36:12.297Z,82.79
2022-12-31T11:38:52.943Z,82.64
2022-12-31T11:41:28.960Z,82.67
2022-12-31T11:44:15.021Z,82.13
2022-12-31T11:47:03.711Z,82.38
2022-12-31T11:49:44.180Z,82.13
2022-12-31T11:52:42.152Z,82.41
2022-12-31T11:55:46.627Z,82.39
2022-12-31T11:58:19.573Z,82.46
2022-12-31T12:01:05.204Z,82.64
2022-12-31T12:03:32.708Z,82.66
2022-12-31T12:05:59.777Z,82.98
2022-12-31T12:08:27.692Z,82.85
2022-12-31T12:11:04.028Z,82.83
2022-12-31T12:13:31.412Z,82.78
2022-12-31T12:16:00.405Z,82.81
2022-12-31T12:18:37.157Z,83.39
2022-12-31T12:21:12.552Z,82.64
2022-12-31T12:23:40.425Z,83.18
2022-12-31T12:26:07.847Z,82.90
2022-12-31T12:28:44.702Z,82.82
2022-12-31T12:31:22.624Z,83.09
2022-12-31T12:33:51.105Z,82.66
2022-12-31T12:36:20.422Z,82.69
2022-12-31T12:38:47.702Z,82.67
2022-12-31T12:41:25.212Z,83.05
2022-12-31T12:44:16.931Z,83.01
2022-12-31T12:46:49.019Z,82.76
2022-12-31T12:49:32.680Z,82.66
2022-12-31T12:52:33.469Z,82.61
2022-12-31T12:55:18.343Z,83.08
2022-12-31T12:58:23.111Z,82.94
2022-12-31T13:01:15.161Z,82.59
2022-12-31T13:07:26.561Z,83.20
2022-12-31T13:10:03.900Z,82.89
2022-12-31T13:13:22.173Z,82.97
2022-12-31T13:15:37.488Z,83.02
2022-12-31T13:18:29.087Z,83.25
2022-12-31T13:21:00.558Z,83.02
2022-12-31T13:23:40.126Z,82.75
2022-12-31T13:26:28.456Z,83.28
2022-12-31T13:28:56.343Z,83.03
2022-12-31T13:31:34.088Z,83.25
2022-12-31T13:34:29.262Z,83.33
2022-12-31T13:36:59.328Z,83.29
2022-12-31T13:39:29.902Z,83.03
2022-12-31T13:42:09.688Z,82.84
2022-12-31T13:44:40.177Z,83.26
2022-12-31T13:47:12.940Z,83.15
2022-12-31T13:49:39.944Z,83.12
2022-12-31T13:52:44.365Z,83.32
2022-12-31T13:55:18.963Z,83.47
2022-12-31T13:58:09.790Z,83.45
2022-12-31T14:00:57.382Z,83.25
2022-12-31T14:03:49.806Z,83.15
2022-12-31T14:06:34.043Z,83.03
2022-12-31T14:09:01.196Z,83.40
2022-12-31T14:11:49.751Z,83.49
2022-12-31T14:14:42.391Z,83.35
2022-12-31T14:17:39.406Z,83.27
2022-12-31T14:20:45.058Z,83.25
2022-12-31T14:23:26.908Z,83.44
2022-12-31T14:26:17.085Z,83.65
2022-12-31T14:29:15.625Z,83.54
2022-12-31T14:31:49.006Z,83.33
2022-12-31T14:34:38.065Z,83.45
2022-12-31T14:37:07.823Z,83.83
2022-12-31T14:40:02.174Z,83.72
2022-12-31T14:42:36.994Z,83.36
2022-12-31T14:45:27.988Z,83.40
2022-12-31T14:47:57.987Z,83.84
2022-12-31T14:50:29.499Z,83.49
2022-12-31T14:53:08.667Z,83.63
2022-12-31T14:55:40.995Z,83.67
2022-12-31T14:58:42.667Z,83.64
2022-12-31T15:01:15.978Z,83.75
2022-12-31T15:03:46.074Z,83.90
2022-12-31T15:06:37.917Z,83.70
2022-12-31T15:09:21.084Z,83.93
2022-12-31T15:12:12.145Z,83.80
2022-12-31T15:14:45.550Z,83.98
2022-12-31T15:17:19.011Z,83.80
2022-12-31T15:19:59.247Z,83.94
2022-12-31T15:22:46.073Z,83.96
2022-12-31T15:25:40.412Z,83.96
2022-12-31T15:28:31.273Z,83.94
2022-12-31T15:31:20.062Z,84.08
2022-12-31T15:33:57.406Z,83.96
2022-12-31T15:36:27.389Z,83.75
2022-12-31T15:39:06.697Z,83.73
2022-12-31T15:42:36.151Z,83.83
2022-12-31T15:44:51.066Z,83.74
2022-12-31T15:47:28.751Z,83.77
2022-12-31T15:49:56.100Z,83.69
2022-12-31T15:52:26.919Z,83.65
2022-12-31T15:54:57.647Z,83.74
2022-12-31T15:57:33.619Z,83.78
2022-12-31T16:00:02.330Z,83.60
2022-12-31T16:02:31.899Z,83.49
2022-12-31T16:04:59.123Z,83.65
2022-12-31T16:07:27.823Z,83.71
2022-12-31T16:09:56.809Z,83.68
2022-12-31T16:12:30.942Z,83.65
2022-12-31T16:15:00.639Z,83.67
2022-12-31T16:17:36.112Z,83.61
2022-12-31T16:20:23.962Z,83.67
2022-12-31T16:22:53.394Z,83.48
2022-12-31T16:25:36.811Z,83.65
2022-12-31T16:28:04.240Z,83.84
2022-12-31T16:30:32.807Z,83.67
2022-12-31T16:33:02.187Z,83.65
2022-12-31T16:35:34.782Z,83.53
2022-12-31T16:38:08.373Z,83.49
2022-12-31T16:40:35.717Z,83.58
2022-12-31T16:43:02.865Z,83.74
2022-12-31T16:45:33.633Z,83.69
2022-12-31T16:48:16.396Z,83.57
2022-12-31T16:50:45.898Z,83.68
2022-12-31T16:53:17.534Z,83.55
2022-12-31T16:55:52.285Z,83.51
2022-12-31T16:58:28.892Z,83.55
2022-12-31T17:01:02.918Z,83.39
2022-12-31T17:03:30.259Z,83.54
2022-12-31T17:06:11.034Z,83.36
2022-12-31T17:09:05.533Z,83.51
2022-12-31T17:11:39.397Z,83.33
2022-12-31T17:14:14.137Z,83.59
2022-12-31T17:17:03.319Z,83.27
2022-12-31T17:19:49.924Z,83.22
2022-12-31T17:22:32.830Z,83.22
2022-12-31T17:25:09.181Z,83.19
2022-12-31T17:27:36.720Z,83.09
2022-12-31T17:30:30.101Z,83.26
2022-12-31T17:33:09.288Z,82.93
2022-12-31T17:35:42.408Z,83.27
2022-12-31T17:38:21.662Z,82.99
2022-12-31T17:40:55.944Z,83.13
2022-12-31T17:43:23.884Z,82.95
2022-12-31T17:45:52.116Z,82.97
2022-12-31T17:48:20.278Z,83.25
2022-12-31T17:50:48.873Z,83.01
2022-12-31T17:53:16.487Z,82.64
2022-12-31T17:55:48.293Z,82.51
2022-12-31T17:58:19.307Z,82.53
2022-12-31T18:00:46.702Z,82.70
2022-12-31T18:03:13.781Z,82.34
2022-12-31T18:05:40.736Z,82.53
2022-12-31T18:08:07.819Z,82.42
2022-12-31T18:10:37.338Z,82.06
2022-12-31T18:13:10.983Z,82.23
2022-12-31T18:15:37.942Z,81.80
2022-12-31T18:18:22.542Z,81.66
2022-12-31T18:20:58.762Z,81.77
2022-12-31T18:23:40.391Z,81.46
2022-12-31T18:26:08.815Z,81.36
2022-12-31T18:28:36.079Z,81.51
2022-12-31T18:31:03.296Z,81.36
2022-12-31T18:33:30.427Z,81.43
2022-12-31T18:36:08.816Z,81.23
2022-12-31T18:38:37.082Z,81.25
2022-12-31T18:41:04.937Z,81.46
2022-12-31T18:43:32.389Z,81.11
2022-12-31T18:45:59.405Z,81.12
2022-12-31T18:48:26.813Z,81.16
2022-12-31T18:50:53.970Z,81.14
2022-12-31T18:53:23.522Z,81.15
2022-12-31T18:55:55.576Z,81.14
2022-12-31T18:58:23.377Z,81.13
2022-12-31T19:00:51.090Z,81.05
2022-12-31T19:03:27.544Z,80.95
2022-12-31T19:05:54.831Z,80.96
2022-12-31T19:08:22.924Z,80.91
2022-12-31T19:10:51.582Z,81.05
2022-12-31T19:13:19.786Z,81.00
2022-12-31T19:15:52.446Z,81.06
2022-12-31T19:18:19.814Z,81.08
2022-12-31T19:20:46.834Z,80.96
2022-12-31T19:23:16.988Z,81.00
2022-12-31T19:25:44.992Z,81.02
2022-12-31T19:28:21.803Z,80.97
2022-12-31T19:30:49.125Z,81.15
2022-12-31T19:33:16.865Z,81.27
2022-12-31T19:35:44.277Z,81.30
2022-12-31T19:38:23.980Z,81.41
2022-12-31T19:40:52.146Z,81.38
2022-12-31T19:43:21.753Z,81.40
2022-12-31T19:45:49.565Z,81.44
2022-12-31T19:48:25.809Z,81.52
2022-12-31T19:50:55.939Z,81.72
2022-12-31T19:53:25.892Z,81.73
2022-12-31T19:55:53.308Z,81.60
2022-12-31T19:58:28.107Z,81.66
2022-12-31T20:01:02.403Z,81.58
2022-12-31T20:03:31.933Z,82.02
2022-12-31T20:06:04.714Z,82.04
2022-12-31T20:08:31.805Z,81.88
2022-12-31T20:10:59.243Z,81.86
2022-12-31T20:13:27.233Z,81.99
2022-12-31T20:15:54.541Z,82.20
2022-12-31T20:18:23.200Z,81.99
2022-12-31T20:20:55.532Z,82.18
2022-12-31T20:23:23.101Z,82.27
2022-12-31T20:26:19.576Z,82.09
2022-12-31T20:28:46.677Z,82.46
2022-12-31T20:31:16.221Z,82.33
2022-12-31T20:33:43.744Z,82.49
2022-12-31T20:36:13.296Z,82.34
2022-12-31T20:38:40.589Z,82.58
2022-12-31T20:41:29.058Z,82.70
2022-12-31T20:43:56.093Z,82.83
2022-12-31T20:46:25.162Z,82.72
2022-12-31T20:48:55.935Z,82.54
2022-12-31T20:51:24.022Z,82.70
2022-12-31T20:53:55.567Z,82.75
2022-12-31T20:56:23.462Z,82.82
2022-12-31T20:58:50.751Z,82.81
2022-12-31T21:01:18.695Z,82.87
2022-12-31T21:06:35.504Z,82.85
2022-12-31T21:09:04.727Z,82.92
2022-12-31T21:11:50.132Z,82.86
2022-12-31T21:14:17.114Z,83.27
2022-12-31T21:16:44.561Z,83.04
2022-12-31T21:19:12.263Z,82.87
2022-12-31T21:21:39.389Z,83.19
2022-12-31T21:24:06.709Z,83.07
2022-12-31T21:26:34.565Z,83.03
2022-12-31T21:29:01.493Z,83.15
2022-12-31T21:31:28.535Z,83.11
2022-12-31T21:33:55.826Z,83.26
2022-12-31T21:36:22.796Z,83.24
2022-12-31T21:38:49.852Z,83.34
2022-12-31T21:41:35.403Z,83.42
2022-12-31T21:44:02.642Z,83.67
2022-12-31T21:46:29.913Z,83.40
2022-12-31T21:49:00.486Z,83.63
2022-12-31T21:51:30.113Z,83.64
2022-12-31T21:53:57.665Z,83.54
2022-12-31T21:56:25.225Z,83.58
2022-12-31T21:59:17.238Z,83.63
2022-12-31T22:02:03.485Z,83.54
2022-12-31T22:07:18.997Z,83.84
2022-12-31T22:09:47.389Z,83.63
2022-12-31T22:12:14.608Z,83.88
2022-12-31T22:15:14.403Z,84.02
2022-12-31T22:17:28.679Z,83.89
2022-12-31T22:22:43.363Z,83.75
2022-12-31T22:25:10.747Z,83.85
2022-12-31T22:27:38.868Z,84.01
2022-12-31T22:30:07.177Z,83.77
2022-12-31T22:32:35.001Z,83.65
2022-12-31T22:35:03.805Z,84.00
2022-12-31T22:40:18.137Z,83.83
2022-12-31T22:42:45.236Z,83.89
2022-12-31T22:45:13.994Z,84.00
2022-12-31T22:47:41.213Z,83.53
2022-12-31T22:50:08.573Z,83.64
2022-12-31T22:52:35.724Z,83.71
2022-12-31T22:55:02.782Z,83.53
2022-12-31T22:57:29.819Z,83.57
2022-12-31T22:59:56.679Z,83.61
2022-12-31T23:02:23.694Z,83.51
2022-12-31T23:04:50.656Z,83.71
2022-12-31T23:07:17.793Z,83.56
2022-12-31T23:10:03.142Z,83.34
2022-12-31T23:12:30.169Z,83.47
2022-12-31T23:15:15.517Z,83.53
2022-12-31T23:18:01.251Z,83.55
2022-12-31T23:20:46.963Z,83.51
2022-12-31T23:23:17.251Z,83.38
2022-12-31T23:25:49.162Z,83.54
2022-12-31T23:28:20.046Z,83.39
2022-12-31T23:30:47.293Z,83.60
2022-12-31T23:33:19.821Z,83.52
2022-12-31T23:35:47.237Z,83.47
2022-12-31T23:38:16.704Z,83.67
2022-12-31T23:40:44.100Z,83.41
2022-12-31T23:43:19.386Z,83.64
2022-12-31T23:45:46.309Z,83.43
2022-12-31T23:48:13.255Z,83.66
2022-12-31T23:50:41.007Z,83.54
2022-12-31T23:53:08.071Z,83.60
2022-12-31T23:55:35.055Z,83.67
2022-12-31T23:58:01.999Z,83.48
